Time;durP1;ratioP1;P1;durP2;ratioP2;P2;SDS_P1;SDS_P2;PMS_P1;PMS_P2;Temp;Humidity;BMP_temperature;BMP_pressure;BME280_temperature;BME280_humidity;BME280_pressure;Samples;Min_cycle;Max_cycle;Signal;HPM_P1;HPM_P2
2024/01/02 00:00:48;;;;;;;3.90;2.63;;;7.40;1.00;;;;;;5086282;27;20461;-72
2024/01/02 00:03:15;;;;;;;2.80;2.40;;;7.40;1.00;;;;;;5082072;27;20489;-71
2024/01/02 00:05:42;;;;;;;5.70;2.10;;;7.40;1.00;;;;;;5086151;28;20957;-71
2024/01/02 00:08:09;;;;;;;3.90;2.30;;;7.40;1.00;;;;;;5081583;27;20478;-70
2024/01/02 00:10:37;;;;;;;4.50;2.47;;;7.40;1.00;;;;;;5085709;28;20459;-70
2024/01/02 00:13:04;;;;;;;4.97;2.60;;;7.40;1.00;;;;;;5084450;28;21422;-71
2024/01/02 00:15:31;;;;;;;4.80;2.30;;;7.40;1.00;;;;;;5088138;27;20477;-71
2024/01/02 00:17:58;;;;;;;3.50;2.23;;;7.50;1.00;;;;;;5077547;27;20508;-71
2024/01/02 00:20:25;;;;;;;3.00;2.27;;;7.50;1.00;;;;;;5067541;27;20463;-71
2024/01/02 00:22:51;;;;;;;5.13;2.60;;;7.50;1.00;;;;;;5077846;28;21784;-71
2024/01/02 00:25:18;;;;;;;3.83;2.70;;;7.50;1.00;;;;;;5073973;27;21294;-73
2024/01/02 00:27:47;;;;;;;3.03;2.60;;;7.50;1.00;;;;;;5085579;27;20573;-71
2024/01/02 00:30:14;;;;;;;4.20;2.30;;;7.40;1.00;;;;;;5088070;27;20510;-72
2024/01/02 00:32:42;;;;;;;4.20;2.30;;;7.40;1.00;;;;;;5086774;27;20462;-72
2024/01/02 00:35:09;;;;;;;4.33;1.80;;;7.40;1.00;;;;;;5088929;27;20450;-71
2024/01/02 00:37:36;;;;;;;4.30;2.50;;;7.30;1.00;;;;;;5089371;27;20439;-71
2024/01/02 00:40:03;;;;;;;4.40;2.60;;;7.30;1.00;;;;;;5089073;28;20524;-71
2024/01/02 00:42:30;;;;;;;4.03;2.30;;;7.30;1.00;;;;;;5086222;27;20546;-72
2024/01/02 00:44:59;;;;;;;5.30;2.47;;;7.30;1.00;;;;;;5086675;27;20476;-71
2024/01/02 00:47:26;;;;;;;3.20;2.43;;;7.20;1.00;;;;;;5085821;27;20494;-73
2024/01/02 00:49:53;;;;;;;4.80;2.00;;;7.10;1.00;;;;;;5086721;27;20446;-70
2024/01/02 00:52:20;;;;;;;4.30;2.87;;;7.10;1.00;;;;;;5086742;27;21047;-73
2024/01/02 00:54:47;;;;;;;3.53;2.80;;;7.10;1.00;;;;;;5087200;28;20486;-72
2024/01/02 00:57:14;;;;;;;3.23;2.53;;;7.10;1.00;;;;;;5086875;27;20498;-72
2024/01/02 00:59:40;;;;;;;5.13;2.80;;;7.10;1.00;;;;;;5086738;27;20541;-72
2024/01/02 01:02:09;;;;;;;3.73;2.43;;;7.10;1.00;;;;;;5086087;27;20251;-71
2024/01/02 01:04:36;;;;;;;2.70;2.00;;;7.10;1.00;;;;;;5085126;28;20654;-72
2024/01/02 01:07:02;;;;;;;4.97;2.93;;;7.10;1.00;;;;;;5086892;27;20484;-71
2024/01/02 01:09:29;;;;;;;5.57;2.70;;;7.10;1.00;;;;;;5085843;28;20561;-74
2024/01/02 01:11:56;;;;;;;4.10;2.50;;;7.10;1.00;;;;;;5087197;28;20502;-72
2024/01/02 01:14:23;;;;;;;3.00;1.93;;;7.10;1.00;;;;;;5089454;27;20599;-71
2024/01/02 01:16:50;;;;;;;3.90;2.27;;;7.10;1.00;;;;;;5088822;27;20471;-71
2024/01/02 01:19:18;;;;;;;7.13;2.53;;;7.10;1.00;;;;;;5087337;28;20517;-72
2024/01/02 01:21:45;;;;;;;3.93;2.30;;;7.20;1.00;;;;;;5091375;28;21372;-72
2024/01/02 01:24:12;;;;;;;5.20;2.23;;;7.20;1.00;;;;;;5090274;27;20493;-71
2024/01/02 01:26:39;;;;;;;4.10;2.07;;;7.20;1.00;;;;;;5090162;28;21266;-71
2024/01/02 01:29:06;;;;;;;5.23;2.80;;;7.10;1.00;;;;;;5092420;28;20520;-73
2024/01/02 01:31:33;;;;;;;2.80;2.13;;;7.20;1.00;;;;;;5088810;28;20601;-71
2024/01/02 01:34:00;;;;;;;3.53;2.50;;;7.20;1.00;;;;;;5089924;28;20449;-72
2024/01/02 01:36:28;;;;;;;9.43;2.77;;;7.10;1.00;;;;;;5088852;28;20596;-72
2024/01/02 01:38:55;;;;;;;6.20;2.33;;;7.00;1.00;;;;;;5087661;27;20488;-71
2024/01/02 01:41:22;;;;;;;4.53;2.43;;;7.00;1.00;;;;;;5085212;27;20484;-70
2024/01/02 01:43:49;;;;;;;3.67;2.00;;;6.90;1.00;;;;;;5087351;27;20454;-70
2024/01/02 01:46:17;;;;;;;12.93;7.60;;;6.90;1.00;;;;;;5078638;27;20481;-70
2024/01/02 01:48:45;;;;;;;7.30;3.45;;;6.80;1.00;;;;;;5086324;27;21226;-70
2024/01/02 01:51:12;;;;;;;3.17;2.00;;;6.80;1.00;;;;;;5069402;28;20267;-72
2024/01/02 01:53:40;;;;;;;4.17;2.43;;;6.70;1.00;;;;;;5073045;28;20450;-72
2024/01/02 01:56:08;;;;;;;8.03;2.90;;;6.70;1.00;;;;;;5088256;28;20557;-71
2024/01/02 01:58:35;;;;;;;4.87;3.00;;;6.70;1.00;;;;;;5090938;28;20525;-70
2024/01/02 02:01:03;;;;;;;6.43;2.60;;;6.70;1.00;;;;;;5089282;28;20465;-70
2024/01/02 02:03:31;;;;;;;5.00;2.00;;;6.70;1.00;;;;;;5088669;28;20468;-71
2024/01/02 02:05:58;;;;;;;5.67;2.70;;;6.60;1.00;;;;;;5088805;27;20605;-73
2024/01/02 02:08:25;;;;;;;4.37;2.10;;;6.50;1.00;;;;;;5088178;28;20547;-70
2024/01/02 02:10:54;;;;;;;4.23;2.40;;;6.50;1.00;;;;;;5089891;28;21246;-70
2024/01/02 02:13:21;;;;;;;5.33;2.03;;;6.50;1.00;;;;;;5085539;27;20516;-70
2024/01/02 02:15:49;;;;;;;4.70;2.73;;;6.50;1.00;;;;;;5081075;27;20509;-72
2024/01/02 02:18:16;;;;;;;5.63;2.67;;;6.40;1.00;;;;;;5067114;27;20530;-71
2024/01/02 02:20:43;;;;;;;6.87;2.70;;;6.30;1.00;;;;;;5089967;27;20457;-71
2024/01/02 02:23:11;;;;;;;4.60;2.60;;;6.20;1.00;;;;;;5089823;28;20579;-71
2024/01/02 02:25:38;;;;;;;7.27;2.67;;;6.10;1.00;;;;;;5089553;27;21087;-70
2024/01/02 02:28:05;;;;;;;5.47;2.75;;;6.00;1.00;;;;;;5089859;28;20492;-76
2024/01/02 02:30:32;;;;;;;5.90;2.80;;;5.90;1.00;;;;;;5090707;27;20275;-72
2024/01/02 02:32:59;;;;;;;8.30;2.58;;;5.80;1.00;;;;;;5089021;27;20545;-71
2024/01/02 02:35:26;;;;;;;5.65;2.65;;;5.90;1.00;;;;;;5087774;28;20242;-73
2024/01/02 02:37:54;;;;;;;6.18;2.28;;;5.90;1.00;;;;;;5089017;28;20238;-71
2024/01/02 02:40:23;;;;;;;7.95;2.67;;;5.80;1.00;;;;;;5089227;28;20252;-71
2024/01/02 02:42:50;;;;;;;5.13;2.15;;;5.70;1.00;;;;;;5091895;27;20303;-74
2024/01/02 02:45:17;;;;;;;6.43;2.75;;;5.70;1.00;;;;;;5088687;27;20345;-73
2024/01/02 02:47:44;;;;;;;4.05;2.15;;;5.60;1.00;;;;;;5093102;27;20294;-73
2024/01/02 02:50:11;;;;;;;8.15;2.92;;;5.60;1.00;;;;;;5087427;27;20706;-74
2024/01/02 02:52:38;;;;;;;5.80;2.70;;;5.60;1.00;;;;;;5088830;28;20430;-73
2024/01/02 02:55:06;;;;;;;8.45;3.30;;;5.60;1.00;;;;;;5088854;27;20553;-74
2024/01/02 02:57:34;;;;;;;7.25;3.70;;;5.50;1.00;;;;;;5089482;27;20356;-74
2024/01/02 03:00:03;;;;;;;18.30;3.97;;;5.50;1.00;;;;;;5088697;28;20261;-73
2024/01/02 03:02:30;;;;;;;5.63;3.20;;;5.40;1.00;;;;;;5086423;27;20241;-74
2024/01/02 03:04:57;;;;;;;7.15;3.10;;;5.50;1.00;;;;;;5091546;28;20239;-73
2024/01/02 03:07:25;;;;;;;6.75;3.03;;;5.50;1.00;;;;;;5087610;27;20333;-74
2024/01/02 03:09:52;;;;;;;8.80;3.75;;;5.40;1.00;;;;;;5090981;27;20361;-73
2024/01/02 03:12:19;;;;;;;7.70;2.75;;;5.40;1.00;;;;;;5087120;27;20241;-72
2024/01/02 03:14:47;;;;;;;10.38;3.47;;;5.30;1.00;;;;;;5071645;28;20303;-73
2024/01/02 03:17:14;;;;;;;4.20;2.55;;;5.20;1.00;;;;;;5082554;27;20245;-73
2024/01/02 03:19:41;;;;;;;6.60;3.00;;;5.20;1.00;;;;;;5075075;28;20323;-76
2024/01/02 03:22:08;;;;;;;16.40;9.55;;;5.20;1.00;;;;;;5068691;28;20347;-72
2024/01/02 03:24:35;;;;;;;26.52;13.27;;;5.20;1.00;;;;;;5070515;28;20237;-73
2024/01/02 03:27:03;;;;;;;21.88;14.32;;;5.10;1.00;;;;;;5082286;27;20778;-72
2024/01/02 03:29:30;;;;;;;15.75;6.53;;;5.00;1.00;;;;;;5086395;28;20233;-74
2024/01/02 03:31:59;;;;;;;9.70;4.68;;;5.00;1.00;;;;;;5087332;27;20236;-73
2024/01/02 03:34:26;;;;;;;8.85;4.50;;;5.00;1.00;;;;;;5076720;28;20264;-73
2024/01/02 03:36:52;;;;;;;9.75;4.40;;;5.00;1.00;;;;;;5067618;28;20242;-74
2024/01/02 03:39:19;;;;;;;5.50;2.97;;;4.90;1.00;;;;;;5067830;28;20331;-73
2024/01/02 03:41:46;;;;;;;15.07;4.40;;;4.90;1.00;;;;;;5067017;28;20348;-73
2024/01/02 03:44:13;;;;;;;8.55;4.05;;;4.80;1.00;;;;;;5076139;27;20236;-73
2024/01/02 03:46:40;;;;;;;10.43;4.18;;;4.70;1.00;;;;;;5075144;28;20242;-73
2024/01/02 03:49:08;;;;;;;8.82;3.35;;;4.80;1.00;;;;;;5061701;27;20239;-73
2024/01/02 03:51:35;;;;;;;9.15;4.28;;;4.80;1.00;;;;;;5063952;27;20721;-73
2024/01/02 03:54:02;;;;;;;16.23;7.13;;;4.80;1.00;;;;;;5082178;27;20237;-74
2024/01/02 03:56:29;;;;;;;8.15;4.50;;;4.80;1.00;;;;;;5075326;28;20241;-73
2024/01/02 03:58:56;;;;;;;9.43;4.47;;;4.70;1.00;;;;;;5066930;28;20717;-73
2024/01/02 04:01:23;;;;;;;9.68;5.35;;;4.60;1.00;;;;;;5067893;27;20314;-73
2024/01/02 04:03:50;;;;;;;9.90;5.65;;;4.60;1.00;;;;;;5086911;27;20371;-73
2024/01/02 04:06:19;;;;;;;15.80;8.82;;;4.70;1.00;;;;;;5088379;28;20314;-73
2024/01/02 04:08:49;;;;;;;11.75;7.70;;;4.60;1.00;;;;;;5084529;27;20302;-74
2024/01/02 04:11:17;;;;;;;15.52;6.82;;;4.60;1.00;;;;;;5087248;27;20232;-73
2024/01/02 04:13:44;;;;;;;11.82;5.70;;;4.60;1.00;;;;;;5072881;27;20336;-73
2024/01/02 04:16:11;;;;;;;9.38;4.97;;;4.50;1.00;;;;;;5071778;27;20329;-73
2024/01/02 04:18:38;;;;;;;11.10;5.30;;;4.50;1.00;;;;;;5074179;28;20314;-73
2024/01/02 04:21:05;;;;;;;15.90;8.38;;;4.40;1.00;;;;;;5092763;27;20232;-73
2024/01/02 04:23:33;;;;;;;15.10;10.80;;;4.40;1.00;;;;;;5094074;28;21079;-72
2024/01/02 04:26:00;;;;;;;17.83;10.68;;;4.40;1.00;;;;;;5089313;28;20256;-74
2024/01/02 04:28:27;;;;;;;17.02;9.30;;;4.40;1.00;;;;;;5091054;27;20275;-73
2024/01/02 04:30:54;;;;;;;7.53;5.00;;;4.40;1.00;;;;;;5091473;27;20267;-73
2024/01/02 04:33:21;;;;;;;10.20;6.03;;;4.40;1.00;;;;;;5088157;27;20278;-73
2024/01/02 04:35:48;;;;;;;9.23;4.68;;;4.40;1.00;;;;;;5092630;27;20232;-73
2024/01/02 04:38:16;;;;;;;11.88;5.55;;;4.40;1.00;;;;;;5087473;28;20710;-74
2024/01/02 04:40:44;;;;;;;18.23;9.10;;;4.30;1.00;;;;;;5090537;28;20267;-73
2024/01/02 04:43:11;;;;;;;14.65;10.27;;;4.30;1.00;;;;;;5089520;27;20715;-73
2024/01/02 04:45:38;;;;;;;18.10;11.80;;;4.20;1.00;;;;;;5089124;27;20282;-74
2024/01/02 04:48:06;;;;;;;15.77;9.13;;;4.20;1.00;;;;;;5087941;28;20260;-74
2024/01/02 04:50:33;;;;;;;9.75;3.95;;;4.20;1.00;;;;;;5087386;27;20306;-73
2024/01/02 04:52:59;;;;;;;14.75;6.22;;;4.20;1.00;;;;;;5068893;28;20708;-73
2024/01/02 04:55:26;;;;;;;19.92;11.48;;;4.20;1.00;;;;;;5067613;28;20249;-74
2024/01/02 04:57:55;;;;;;;24.02;17.10;;;4.10;1.00;;;;;;5078704;27;20244;-73
2024/01/02 05:00:25;;;;;;;24.83;14.85;;;4.10;1.00;;;;;;5087803;27;20703;-72
2024/01/02 05:02:51;;;;;;;18.80;13.63;;;4.20;1.00;;;;;;5080187;27;20361;-75
2024/01/02 05:05:19;;;;;;;23.08;13.93;;;4.20;1.00;;;;;;5065037;28;20252;-76
2024/01/02 05:07:46;;;;;;;19.10;11.57;;;4.20;1.00;;;;;;5067128;27;20240;-73
2024/01/02 05:10:13;;;;;;;23.20;12.50;;;4.20;1.00;;;;;;5084801;27;20240;-76
2024/01/02 05:12:39;;;;;;;15.05;10.63;;;4.10;1.00;;;;;;5085925;28;20255;-75
2024/01/02 05:15:08;;;;;;;10.45;6.65;;;4.10;1.00;;;;;;5088591;28;20244;-73
2024/01/02 05:17:35;;;;;;;8.77;6.03;;;4.10;1.00;;;;;;5082259;28;20775;-76
2024/01/02 05:20:03;;;;;;;10.35;5.05;;;4.10;1.00;;;;;;5068860;28;20233;-74
2024/01/02 05:22:30;;;;;;;6.97;3.55;;;4.20;1.00;;;;;;5076476;28;20245;-74
2024/01/02 05:24:57;;;;;;;8.23;3.97;;;4.20;1.00;;;;;;5070331;28;20732;-75
2024/01/02 05:27:24;;;;;;;8.57;3.40;;;4.20;1.00;;;;;;5070628;28;20252;-75
2024/01/02 05:29:51;;;;;;;6.60;3.65;;;4.10;1.00;;;;;;5084480;27;20810;-75
2024/01/02 05:32:19;;;;;;;16.42;7.35;;;4.10;1.00;;;;;;5071177;28;20261;-75
2024/01/02 05:34:46;;;;;;;13.50;4.15;;;4.20;1.00;;;;;;5076514;27;20242;-75
2024/01/02 05:37:15;;;;;;;12.02;4.00;;;4.20;1.00;;;;;;5088465;28;20835;-74
2024/01/02 05:39:42;;;;;;;12.82;3.85;;;4.10;1.00;;;;;;5089805;28;20233;-73
2024/01/02 05:42:09;;;;;;;8.77;3.22;;;4.20;1.00;;;;;;5085825;28;20329;-75
2024/01/02 05:44:36;;;;;;;7.47;4.13;;;4.10;1.00;;;;;;5089517;27;20314;-75
2024/01/02 05:47:03;;;;;;;10.82;3.67;;;4.10;1.00;;;;;;5088871;28;20236;-76
2024/01/02 05:49:31;;;;;;;8.75;4.05;;;4.20;1.00;;;;;;5088536;28;21011;-76
2024/01/02 05:51:58;;;;;;;6.25;3.40;;;4.10;1.00;;;;;;5088137;27;20244;-75
2024/01/02 05:54:25;;;;;;;8.45;3.50;;;4.10;1.00;;;;;;5085061;27;20260;-75
2024/01/02 05:56:52;;;;;;;8.43;3.50;;;4.20;1.00;;;;;;5089293;27;20240;-75
2024/01/02 05:59:19;;;;;;;8.50;4.05;;;4.10;1.00;;;;;;5088603;28;20242;-75
2024/01/02 06:01:46;;;;;;;5.32;3.83;;;4.10;1.00;;;;;;5086777;28;20266;-75
2024/01/02 06:04:13;;;;;;;7.75;3.80;;;4.10;1.00;;;;;;5088323;27;20305;-75
2024/01/02 06:06:41;;;;;;;8.85;3.65;;;4.20;1.00;;;;;;5071398;28;20299;-75
2024/01/02 06:09:08;;;;;;;7.65;4.10;;;4.10;1.00;;;;;;5073730;28;20324;-77
2024/01/02 06:11:35;;;;;;;5.18;3.10;;;4.10;1.00;;;;;;5070781;28;20385;-70
2024/01/02 06:14:02;;;;;;;9.38;4.28;;;4.10;1.00;;;;;;5086143;27;20791;-73
2024/01/02 06:16:29;;;;;;;8.48;3.33;;;4.20;1.00;;;;;;5083334;27;20351;-71
2024/01/02 06:18:56;;;;;;;9.57;4.40;;;4.20;1.00;;;;;;5067333;27;21158;-71
2024/01/02 06:21:23;;;;;;;8.57;3.25;;;4.20;1.00;;;;;;5072830;28;20335;-74
2024/01/02 06:23:51;;;;;;;8.18;3.00;;;4.10;1.00;;;;;;5066155;28;20245;-70
2024/01/02 06:26:18;;;;;;;8.30;3.15;;;4.10;1.00;;;;;;5084506;28;20244;-70
2024/01/02 06:28:46;;;;;;;5.57;3.85;;;4.10;1.00;;;;;;5087617;28;20341;-70
2024/01/02 06:31:13;;;;;;;7.20;4.10;;;4.10;1.00;;;;;;5087271;28;20236;-71
2024/01/02 06:33:44;;;;;;;7.53;3.70;;;4.10;1.00;;;;;;5088709;28;20246;-72
2024/01/02 06:36:13;;;;;;;6.63;3.28;;;4.00;1.00;;;;;;5086044;28;20239;-71
2024/01/02 06:38:40;;;;;;;7.82;3.47;;;4.00;1.00;;;;;;5088005;27;20232;-71
2024/01/02 06:41:08;;;;;;;9.88;4.07;;;4.10;1.00;;;;;;5088022;27;20240;-73
2024/01/02 06:43:35;;;;;;;7.80;3.75;;;4.10;1.00;;;;;;5089635;28;20242;-73
2024/01/02 06:46:04;;;;;;;6.18;3.05;;;4.20;1.00;;;;;;5084495;27;20240;-74
2024/01/02 06:48:30;;;;;;;5.60;3.28;;;4.10;1.00;;;;;;5081327;27;20240;-72
2024/01/02 06:50:57;;;;;;;10.90;4.13;;;4.20;1.00;;;;;;5080053;28;21151;-73
2024/01/02 06:53:24;;;;;;;5.35;2.47;;;4.10;1.00;;;;;;5086086;28;20795;-72
2024/01/02 06:55:51;;;;;;;9.90;4.43;;;4.10;1.00;;;;;;5087379;27;20236;-69
2024/01/02 06:58:19;;;;;;;5.07;2.95;;;4.10;1.00;;;;;;5085509;27;20318;-71
2024/01/02 07:00:48;;;;;;;6.80;3.80;;;4.20;1.00;;;;;;5088017;28;20263;-70
2024/01/02 07:03:14;;;;;;;8.57;3.25;;;4.10;1.00;;;;;;5087818;27;20290;-71
2024/01/02 07:05:44;;;;;;;6.32;2.88;;;4.10;1.00;;;;;;5086491;27;20282;-72
2024/01/02 07:08:11;;;;;;;6.20;2.75;;;4.10;1.00;;;;;;5084719;28;20236;-73
2024/01/02 07:10:39;;;;;;;6.32;3.83;;;4.20;1.00;;;;;;5088583;27;20299;-70
2024/01/02 07:13:06;;;;;;;10.80;3.58;;;4.20;1.00;;;;;;5086740;27;20246;-71
2024/01/02 07:15:38;;;;;;;8.60;3.25;;;4.20;1.00;;;;;;5083825;28;20235;-70
2024/01/02 07:18:05;;;;;;;6.72;3.00;;;4.30;1.00;;;;;;5089870;28;20736;-70
2024/01/02 07:20:32;;;;;;;5.45;3.50;;;4.30;1.00;;;;;;5083179;28;20615;-72
2024/01/02 07:22:59;;;;;;;8.73;3.42;;;4.30;1.00;;;;;;5077536;27;20232;-75
2024/01/02 07:25:26;;;;;;;6.13;3.00;;;4.30;1.00;;;;;;5067079;27;20240;-74
2024/01/02 07:27:53;;;;;;;5.68;3.60;;;4.30;1.00;;;;;;5067270;28;20663;-77
2024/01/02 07:30:20;;;;;;;8.80;3.53;;;4.40;1.00;;;;;;5082035;27;20438;-76
2024/01/02 07:32:49;;;;;;;5.13;3.13;;;4.30;1.00;;;;;;5066926;28;20283;-74
2024/01/02 07:35:16;;;;;;;4.20;2.60;;;4.40;1.00;;;;;;5067403;27;20250;-75
2024/01/02 07:37:43;;;;;;;9.05;4.20;;;4.30;1.00;;;;;;5086000;27;20671;-76
2024/01/02 07:40:11;;;;;;;5.07;2.70;;;4.40;1.00;;;;;;5084510;27;20244;-75
2024/01/02 07:42:38;;;;;;;5.88;2.63;;;4.40;1.00;;;;;;5087270;27;20324;-76
2024/01/02 07:45:06;;;;;;;5.70;3.22;;;4.50;1.00;;;;;;5069877;28;20248;-75
2024/01/02 07:47:32;;;;;;;5.32;3.58;;;4.50;1.00;;;;;;5085584;27;20233;-75
2024/01/02 07:50:04;;;;;;;7.78;3.33;;;4.50;1.00;;;;;;5075134;28;20235;-73
2024/01/02 07:52:31;;;;;;;10.75;2.90;;;4.50;1.00;;;;;;5086224;28;20353;-75
2024/01/02 07:54:58;;;;;;;7.93;2.80;;;4.60;1.00;;;;;;5087123;28;20241;-71
2024/01/02 07:57:25;;;;;;;4.25;2.47;;;4.60;1.00;;;;;;5086684;28;21038;-74
2024/01/02 07:59:52;;;;;;;5.90;2.58;;;4.60;1.00;;;;;;5084604;28;20249;-75
2024/01/02 08:02:19;;;;;;;7.28;3.33;;;4.70;1.00;;;;;;5084736;28;20244;-75
2024/01/02 08:04:46;;;;;;;4.40;2.25;;;4.60;1.00;;;;;;5082455;28;20287;-74
2024/01/02 08:07:14;;;;;;;5.72;2.55;;;4.60;1.00;;;;;;5083805;27;21216;-74
2024/01/02 08:09:41;;;;;;;4.65;2.30;;;4.60;1.00;;;;;;5086773;27;20240;-77
2024/01/02 08:12:08;;;;;;;7.50;2.40;;;4.70;1.00;;;;;;5074557;27;20697;-74
2024/01/02 08:14:35;;;;;;;7.80;3.30;;;4.70;1.00;;;;;;5064971;28;20320;-75
2024/01/02 08:17:02;;;;;;;6.55;2.55;;;4.60;1.00;;;;;;5064992;28;20328;-75
2024/01/02 08:19:29;;;;;;;4.15;2.25;;;4.60;1.00;;;;;;5065182;28;20336;-74
2024/01/02 08:21:56;;;;;;;3.80;2.30;;;4.70;1.00;;;;;;5067971;28;20237;-75
2024/01/02 08:24:24;;;;;;;4.75;2.25;;;4.70;1.00;;;;;;5067817;28;20339;-74
2024/01/02 08:26:52;;;;;;;3.50;2.45;;;4.80;1.00;;;;;;5079792;28;20272;-75
2024/01/02 08:29:19;;;;;;;5.20;2.45;;;4.80;1.00;;;;;;5086938;27;20247;-75
2024/01/02 08:31:46;;;;;;;4.90;2.47;;;4.80;1.00;;;;;;5074961;28;20303;-74
2024/01/02 08:34:13;;;;;;;6.75;2.22;;;4.90;1.00;;;;;;5080912;27;20323;-76
2024/01/02 08:36:40;;;;;;;10.52;5.03;;;4.90;1.00;;;;;;5085758;28;20280;-74
2024/01/02 08:39:07;;;;;;;6.53;3.45;;;4.90;1.00;;;;;;5067236;27;21019;-71
2024/01/02 08:41:36;;;;;;;4.75;2.58;;;4.90;1.00;;;;;;5076830;27;20240;-75
2024/01/02 08:44:04;;;;;;;7.15;3.65;;;4.90;1.00;;;;;;5086552;27;20247;-74
2024/01/02 08:46:31;;;;;;;3.42;2.22;;;4.90;1.00;;;;;;5083827;27;20727;-73
2024/01/02 08:48:57;;;;;;;7.25;2.88;;;4.90;1.00;;;;;;5085610;27;20310;-76
2024/01/02 08:51:25;;;;;;;10.60;3.35;;;5.00;1.00;;;;;;5086460;27;20331;-74
2024/01/02 08:53:52;;;;;;;5.53;2.85;;;5.00;1.00;;;;;;5082674;28;20242;-74
2024/01/02 08:56:19;;;;;;;3.60;2.10;;;5.10;1.00;;;;;;5086856;28;20236;-74
2024/01/02 08:58:48;;;;;;;7.20;2.15;;;5.20;1.00;;;;;;5071089;28;20340;-74
2024/01/02 09:01:17;;;;;;;3.70;2.60;;;5.30;1.00;;;;;;5088055;27;20291;-75
2024/01/02 09:03:44;;;;;;;3.58;2.08;;;5.30;1.00;;;;;;5087178;27;20236;-74
2024/01/02 09:06:12;;;;;;;5.43;3.45;;;5.40;1.00;;;;;;5088710;27;20322;-77
2024/01/02 09:08:39;;;;;;;6.95;3.42;;;5.30;1.00;;;;;;5087594;27;20245;-77
2024/01/02 09:11:10;;;;;;;3.97;2.63;;;5.20;1.00;;;;;;5085826;27;20297;-75
2024/01/02 09:13:37;;;;;;;3.25;2.22;;;5.20;1.00;;;;;;5083403;27;20234;-75
2024/01/02 09:16:06;;;;;;;4.22;1.75;;;5.10;1.00;;;;;;5068138;28;20240;-74
2024/01/02 09:18:33;;;;;;;4.55;2.03;;;5.10;1.00;;;;;;5064763;28;21086;-74
2024/01/02 09:20:59;;;;;;;4.50;2.35;;;5.10;1.00;;;;;;5068258;27;20270;-74
2024/01/02 09:23:26;;;;;;;2.70;2.00;;;5.30;1.00;;;;;;5068729;27;21523;-75
2024/01/02 09:25:59;;;;;;;3.17;1.83;;;5.30;1.00;;;;;;5066283;28;20326;-74
2024/01/02 09:28:26;;;;;;;4.10;1.90;;;5.30;1.00;;;;;;5065505;28;20368;-73
2024/01/02 09:30:53;;;;;;;4.72;2.05;;;5.30;1.00;;;;;;5069422;27;20319;-73
2024/01/02 09:33:23;;;;;;;6.60;2.20;;;5.40;1.00;;;;;;5081153;28;20421;-75
2024/01/02 09:35:50;;;;;;;5.28;2.10;;;5.40;1.00;;;;;;5084117;28;21021;-74
2024/01/02 09:38:17;;;;;;;2.35;1.70;;;5.30;1.00;;;;;;5089284;28;20724;-74
2024/01/02 09:41:06;;;;;;;2.72;2.03;;;5.30;1.00;;;;;;5088463;28;20237;-74
2024/01/02 09:43:45;;;;;;;6.07;2.20;;;5.20;1.00;;;;;;5086999;27;20241;-74
2024/01/02 09:46:21;;;;;;;7.50;2.38;;;5.10;1.00;;;;;;5088641;27;20260;-76
2024/01/02 09:49:07;;;;;;;4.03;2.28;;;5.10;1.00;;;;;;5069078;28;20232;-72
2024/01/02 09:51:44;;;;;;;3.17;2.60;;;5.00;1.00;;;;;;5068028;28;20233;-74
2024/01/02 09:54:30;;;;;;;5.50;2.03;;;5.00;1.00;;;;;;5068090;28;20348;-74
2024/01/02 09:57:05;;;;;;;4.82;2.53;;;5.00;1.00;;;;;;5086937;27;20232;-75
2024/01/02 09:59:44;;;;;;;7.05;2.03;;;5.00;1.00;;;;;;5081473;27;20233;-74
2024/01/02 10:02:31;;;;;;;4.20;2.08;;;4.90;1.00;;;;;;5083002;28;20244;-75
2024/01/02 10:05:11;;;;;;;5.22;2.22;;;5.00;1.00;;;;;;5084974;27;20773;-72
2024/01/02 10:08:06;;;;;;;2.80;1.85;;;5.00;1.00;;;;;;5075432;27;20240;-70
2024/01/02 10:10:36;;;;;;;6.07;2.00;;;5.00;1.00;;;;;;5080073;27;20232;-77
2024/01/02 10:13:21;;;;;;;4.03;2.13;;;5.00;1.00;;;;;;5076562;27;20242;-73
2024/01/02 10:15:56;;;;;;;3.70;2.00;;;5.10;1.00;;;;;;5076033;27;20339;-74
2024/01/02 10:18:36;;;;;;;5.38;2.55;;;5.10;1.00;;;;;;5068907;27;20263;-77
2024/01/02 10:21:15;;;;;;;3.03;2.15;;;5.20;1.00;;;;;;5087825;27;20961;-77
2024/01/02 10:23:56;;;;;;;3.95;2.00;;;5.20;1.00;;;;;;5084424;28;20268;-74
2024/01/02 10:26:25;;;;;;;4.43;2.03;;;5.20;1.00;;;;;;5087864;27;20237;-78
2024/01/02 10:28:57;;;;;;;3.47;2.17;;;5.20;1.00;;;;;;5080340;27;20341;-72
2024/01/02 10:31:33;;;;;;;1.95;1.73;;;5.20;1.00;;;;;;5087039;27;20236;-75
2024/01/02 10:34:10;;;;;;;4.28;2.42;;;5.30;1.00;;;;;;5085933;28;20268;-74
2024/01/02 10:36:45;;;;;;;4.30;2.00;;;5.20;1.00;;;;;;5088723;27;20319;-74
2024/01/02 10:39:21;;;;;;;3.28;2.05;;;5.20;1.00;;;;;;5088912;28;20235;-74
2024/01/02 10:41:57;;;;;;;5.53;2.25;;;5.20;1.00;;;;;;5088247;28;20236;-74
2024/01/02 10:44:35;;;;;;;4.50;2.40;;;5.20;1.00;;;;;;5088184;28;20330;-75
2024/01/02 10:47:13;;;;;;;3.70;2.45;;;5.30;1.00;;;;;;5076798;27;20273;-74
2024/01/02 10:49:45;;;;;;;2.95;2.58;;;5.30;1.00;;;;;;5085770;28;20258;-74
2024/01/02 10:52:19;;;;;;;2.70;2.17;;;5.30;1.00;;;;;;5072058;27;20320;-75
2024/01/02 10:54:54;;;;;;;3.83;2.50;;;5.30;1.00;;;;;;5079118;27;20319;-74
2024/01/02 10:57:29;;;;;;;2.78;2.33;;;5.40;1.00;;;;;;5058438;28;20246;-75
2024/01/02 11:00:05;;;;;;;4.30;2.20;;;5.50;1.00;;;;;;5082564;27;20684;-75
2024/01/02 11:02:41;;;;;;;6.35;3.03;;;5.40;1.00;;;;;;5075757;28;20239;-75
2024/01/02 11:05:16;;;;;;;3.50;2.90;;;5.40;1.00;;;;;;5069042;27;20249;-76
2024/01/02 11:07:50;;;;;;;5.00;3.28;;;5.40;1.00;;;;;;5066562;28;20677;-76
2024/01/02 11:10:22;;;;;;;4.45;2.25;;;5.40;1.00;;;;;;5083820;27;20250;-75
2024/01/02 11:12:55;;;;;;;3.70;2.92;;;5.50;1.00;;;;;;5072722;28;20295;-75
2024/01/02 11:15:25;;;;;;;5.95;3.22;;;5.40;1.00;;;;;;5065700;28;20285;-74
2024/01/02 11:17:53;;;;;;;4.40;3.22;;;5.40;1.00;;;;;;5064478;28;20320;-72
2024/01/02 11:20:22;;;;;;;3.75;2.40;;;5.40;1.00;;;;;;5067959;27;20242;-74
2024/01/02 11:23:01;;;;;;;3.08;2.42;;;5.40;1.00;;;;;;5069949;28;20268;-75
2024/01/02 11:25:34;;;;;;;4.63;3.08;;;5.40;1.00;;;;;;5083869;27;20301;-76
2024/01/02 11:28:05;;;;;;;4.07;2.50;;;5.40;1.00;;;;;;5087233;28;20252;-75
2024/01/02 11:30:36;;;;;;;3.55;2.45;;;5.40;1.00;;;;;;5080211;28;20333;-70
2024/01/02 11:33:11;;;;;;;2.30;2.10;;;5.40;1.00;;;;;;5088077;27;20271;-72
2024/01/02 11:35:48;;;;;;;4.93;2.50;;;5.50;1.00;;;;;;5082200;27;20237;-74
2024/01/02 11:38:24;;;;;;;4.45;2.42;;;5.70;1.00;;;;;;5079159;28;20323;-72
2024/01/02 11:41:03;;;;;;;2.55;2.35;;;5.70;1.00;;;;;;5088124;28;20917;-72
2024/01/02 11:43:41;;;;;;;4.68;2.05;;;5.70;1.00;;;;;;5086600;28;20257;-70
2024/01/02 11:46:08;;;;;;;3.70;2.42;;;5.70;1.00;;;;;;5085282;28;20332;-72
2024/01/02 11:48:43;;;;;;;2.88;2.50;;;5.70;1.00;;;;;;5089350;28;20328;-75
2024/01/02 11:51:21;;;;;;;4.10;2.92;;;5.70;1.00;;;;;;5083856;28;20237;-72
2024/01/02 11:54:13;;;;;;;2.60;2.40;;;5.80;1.00;;;;;;5086894;27;21028;-72
2024/01/02 11:56:42;;;;;;;3.20;2.70;;;5.80;1.00;;;;;;5068858;28;20329;-71
2024/01/02 11:59:19;;;;;;;7.13;3.28;;;5.80;1.00;;;;;;5086532;27;20243;-70
2024/01/02 12:01:59;;;;;;;3.30;2.60;;;5.60;1.00;;;;;;5087869;27;20235;-71
2024/01/02 12:04:40;;;;;;;2.97;2.78;;;5.60;1.00;;;;;;5086251;27;20243;-71
2024/01/02 12:07:14;;;;;;;5.80;2.45;;;5.60;1.00;;;;;;5086143;27;20328;-72
2024/01/02 12:09:46;;;;;;;2.90;2.60;;;5.50;1.00;;;;;;5086487;27;20683;-74
2024/01/02 12:12:31;;;;;;;3.00;2.70;;;5.50;1.00;;;;;;5088370;27;20600;-73
2024/01/02 12:15:05;;;;;;;6.10;3.70;;;5.50;1.00;;;;;;5085147;27;20240;-73
2024/01/02 12:17:39;;;;;;;4.03;3.60;;;5.60;1.00;;;;;;5085266;27;20409;-73
2024/01/02 12:20:10;;;;;;;4.75;2.80;;;5.60;1.00;;;;;;5086663;28;20299;-71
2024/01/02 12:22:37;;;;;;;3.00;2.53;;;5.70;1.00;;;;;;5067196;28;20830;-71
2024/01/02 12:25:07;;;;;;;5.03;3.47;;;5.60;1.00;;;;;;5066618;28;20273;-73
2024/01/02 12:27:35;;;;;;;4.55;3.30;;;5.60;1.00;;;;;;5075602;27;20263;-72
2024/01/02 12:30:05;;;;;;;5.50;3.38;;;5.60;1.00;;;;;;5087850;27;20247;-71
2024/01/02 12:32:51;;;;;;;7.18;3.67;;;5.60;1.00;;;;;;5094350;28;20238;-73
2024/01/02 12:35:27;;;;;;;3.00;2.70;;;5.60;1.00;;;;;;5091062;28;20289;-70
2024/01/02 12:38:15;;;;;;;2.92;2.42;;;5.70;1.00;;;;;;5087176;27;20242;-70
2024/01/02 12:40:45;;;;;;;3.85;2.50;;;5.70;1.00;;;;;;5076090;27;20240;-70
2024/01/02 12:43:14;;;;;;;5.80;3.10;;;5.70;1.00;;;;;;5074085;27;20237;-72
2024/01/02 12:45:46;;;;;;;3.90;2.90;;;5.70;1.00;;;;;;5090636;27;20247;-71
2024/01/02 12:48:18;;;;;;;4.07;3.60;;;5.70;1.00;;;;;;5073842;28;20339;-71
2024/01/02 12:50:50;;;;;;;3.00;2.80;;;5.80;1.00;;;;;;5092945;27;20305;-71
2024/01/02 12:53:20;;;;;;;4.00;3.30;;;5.80;1.00;;;;;;5092623;27;20331;-72
2024/01/02 12:55:54;;;;;;;4.28;3.30;;;5.90;1.00;;;;;;5090317;28;20337;-73
2024/01/02 12:58:22;;;;;;;4.22;2.95;;;5.80;1.00;;;;;;5090615;27;20700;-71
2024/01/02 13:00:49;;;;;;;7.55;3.10;;;5.80;1.00;;;;;;5089625;28;20274;-69
2024/01/02 13:03:18;;;;;;;4.45;3.08;;;5.80;1.00;;;;;;5090163;27;20238;-71
2024/01/02 13:05:45;;;;;;;4.25;3.45;;;5.90;1.00;;;;;;5093607;28;20320;-72
2024/01/02 13:08:17;;;;;;;6.38;4.28;;;6.00;1.00;;;;;;5091974;28;20264;-69
2024/01/02 13:10:45;;;;;;;4.80;2.83;;;6.00;1.00;;;;;;5092038;27;20327;-70
2024/01/02 13:13:14;;;;;;;4.00;3.70;;;5.90;1.00;;;;;;5089710;27;20249;-71
2024/01/02 13:15:43;;;;;;;5.38;3.50;;;5.90;1.00;;;;;;5089798;27;20341;-71